Latest Weather Observations for Cabramurra

IDN60901

Issued at 12:51 am EST Thursday 17 August 2017 (issued every 10 minutes, with the page automatically refreshed every 10 minutes)

About weather observations | Map of Canberra area stations | Latest observations for Canberra area | Other Formats
Station Details ID: 072161 Name: CABRAMURRA SMHEA AWS Lat: -35.94 Lon: 148.38 Height: 1482.4 m
Data from the previous 72 hours. | See also: Recent months at Cabramurra
Date/Time
EST
Temp
°C
App
Temp
°C
Dew
Point
°C
Rel
Hum
%
Delta-T
°C
Wind Press
QNH
hPa
Press
MSL
hPa
Rain since
9am
mm
Dir  Spd
km/h
Gust
km/h
Spd
kts
Gust
kts
17/12:30am 1.3 -5.8 1.3 100 0.0 WNW 28 46 15 25 - - 15.8
17/12:00am 1.3 -7.1 1.3 100 0.0 WNW 35 78 19 42 - - 15.4
 
Date/Time
EST
Temp
°C
App
Temp
°C
Dew
Point
°C
Rel
Hum
%
Delta-T
°C
Wind Press
QNH
hPa
Press
MSL
hPa
Rain since
9am
mm
Dir  Spd
km/h
Gust
km/h
Spd
kts
Gust
kts
16/11:54pm 1.1 -6.8 1.1 100 0.0 W 32 78 17 42 - - 15.4
16/11:30pm 1.1 -7.0 1.1 100 0.0 WNW 33 57 18 31 - - 11.6
16/11:10pm 1.3 -6.6 1.3 100 0.0 WNW 32 50 17 27 - - 9.8
16/11:00pm 1.1 -7.4 1.1 100 0.0 NW 35 52 19 28 - - 9.4
16/10:30pm 1.6 -7.2 1.6 100 0.0 NW 37 56 20 30 - - 8.0
16/10:00pm 1.7 -7.0 1.7 100 0.0 NW 37 56 20 30 - - 8.0
16/09:30pm 1.6 -7.5 1.6 100 0.0 NW 39 59 21 32 - - 8.0
16/09:01pm 1.6 -7.2 1.6 100 0.0 NW 37 56 20 30 - - 8.0
16/09:00pm 1.6 -7.5 1.6 100 0.0 NW 39 56 21 30 - - 8.0
16/08:30pm 1.6 -6.8 1.6 100 0.0 NW 35 54 19 29 - - 8.0
16/08:00pm 1.6 -6.8 1.6 100 0.0 WNW 35 63 19 34 - - 8.0
16/07:30pm 1.4 -7.0 1.4 100 0.0 NW 35 59 19 32 - - 8.0
16/07:12pm 1.5 -6.5 1.5 100 0.0 NW 33 52 18 28 - - 7.8
16/07:00pm 1.4 -6.6 1.4 100 0.0 NW 33 50 18 27 - - 7.8
16/06:30pm 1.2 -7.6 1.2 100 0.0 WNW 37 61 20 33 - - 7.8
16/06:00pm 1.1 -7.0 1.1 100 0.0 WNW 33 57 18 31 - - 7.6
16/05:31pm 1.2 -8.0 1.2 100 0.0 WNW 39 59 21 32 - - 7.4
16/05:30pm 1.2 -7.6 1.2 100 0.0 WNW 37 54 20 29 - - 7.4
16/05:00pm 1.2 -6.9 1.2 100 0.0 WNW 33 61 18 33 - - 7.4
16/04:39pm 1.2 -8.0 1.2 100 0.0 WNW 39 59 21 32 - - 7.2
16/04:35pm 1.1 -8.1 1.1 100 0.0 W 39 59 21 32 - - 7.2
16/04:30pm 1.2 -8.0 1.2 100 0.0 W 39 67 21 36 - - 7.2
16/04:00pm 1.4 -6.4 1.4 100 0.0 W 32 56 17 30 - - 4.0
16/03:30pm 1.3 -7.5 1.3 100 0.0 WNW 37 61 20 33 - - 4.0
16/03:29pm 1.2 -7.3 1.2 100 0.0 W 35 57 19 31 - - 4.0
16/03:26pm 1.2 -7.6 1.2 100 0.0 W 37 65 20 35 - - 4.0
16/03:24pm 1.3 -7.1 1.3 100 0.0 W 35 65 19 35 - - 4.0
16/03:19pm 1.1 -8.1 1.1 100 0.0 WNW 39 65 21 35 - - 3.8
16/03:00pm 1.4 -7.0 1.4 100 0.0 WNW 35 57 19 31 - - 3.2
16/02:30pm 1.3 -5.8 1.3 100 0.0 W 28 63 15 34 - - 3.2
16/02:00pm 1.2 -7.3 1.2 100 0.0 W 35 63 19 34 - - 2.8
16/01:30pm 1.0 -9.0 1.0 100 0.0 W 43 72 23 39 - - 2.8
16/01:00pm 1.4 -8.2 1.4 100 0.0 W 41 65 22 35 - - 1.8
16/12:46pm 1.3 -8.8 1.3 100 0.0 WNW 44 70 24 38 - - 1.6
16/12:37pm 1.4 -8.5 1.4 100 0.0 WNW 43 76 23 41 - - 1.6
16/12:34pm 1.5 -7.7 1.5 100 0.0 W 39 76 21 41 - - 1.6
16/12:30pm 1.6 -7.5 1.6 100 0.0 W 39 78 21 42 - - 1.6
16/12:11pm 1.6 -7.2 1.6 100 0.0 WNW 37 76 20 41 - - 1.6
16/12:06pm 1.5 -7.7 1.5 100 0.0 W 39 59 21 32 - - 1.6
16/12:00pm 1.4 -6.6 1.4 100 0.0 W 33 57 18 31 - - 1.6
16/11:58am 1.4 -6.4 1.4 100 0.0 W 32 57 17 31 - - 1.6
16/11:53am 1.5 -7.3 1.5 100 0.0 WNW 37 70 20 38 - - 1.6
16/11:30am 1.7 -8.2 1.7 100 0.0 WNW 43 65 23 35 - - 1.6
16/11:00am 1.6 -8.9 1.6 100 0.0 WNW 46 83 25 45 - - 1.6
16/10:30am 1.5 -10.5 1.5 100 0.0 WNW 54 85 29 46 - - 0.0
16/10:00am 1.5 -9.8 1.5 100 0.0 WNW 50 78 27 42 - - 0.0
16/09:30am 1.6 -8.9 1.6 100 0.0 WNW 46 95 25 51 - - 0.0
16/09:25am 1.6 -8.9 1.6 100 0.0 WNW 46 95 25 51 - - 0.0
16/09:03am 1.4 -10.2 1.4 100 0.0 WNW 52 89 28 48 - - 0.0
16/09:01am 1.7 -10.7 1.7 100 0.0 WNW 56 89 30 48 - - 0.0
16/09:00am 1.5 -11.5 1.5 100 0.0 WNW 59 95 32 51 - - 56.2
16/08:30am 1.7 -9.9 1.7 100 0.0 W 52 95 28 51 - - 56.2
16/08:06am 1.9 -9.7 1.9 100 0.0 WNW 52 100 28 54 - - 56.2
16/08:00am 2.0 -9.9 2.0 100 0.0 WNW 54 80 29 43 - - 56.2
16/07:30am 2.2 -10.1 2.2 100 0.0 W 56 96 30 52 - - 56.2
16/07:28am 2.2 -10.3 2.2 100 0.0 W 57 96 31 52 - - 56.2
16/07:16am 2.2 -10.1 2.2 100 0.0 W 56 87 30 47 - - 56.2
16/07:07am 2.4 -9.5 2.4 100 0.0 W 54 91 29 49 - - 56.2
16/07:05am 2.5 -9.7 2.5 100 0.0 WNW 56 91 30 49 - - 56.0
16/07:00am 3.5 -7.4 3.5 100 0.0 WNW 50 89 27 48 - - 55.2
16/06:30am 3.2 -6.6 3.2 100 0.0 WNW 44 83 24 45 - - 52.6
16/06:00am 3.0 -9.1 3.0 100 0.0 WNW 56 82 30 44 - - 50.2
16/05:30am 3.5 -8.7 3.5 100 0.0 WNW 57 91 31 49 - - 46.8
16/05:00am 3.9 -7.3 3.9 100 0.0 NW 52 78 28 42 - - 43.4
16/04:30am 4.4 -5.2 4.4 100 0.0 WNW 44 87 24 47 - - 40.2
16/04:00am 4.6 -5.3 4.6 100 0.0 W 46 70 25 38 - - 35.4
16/03:30am 4.5 -6.6 4.5 100 0.0 WNW 52 96 28 52 - - 31.8
16/03:28am 4.6 -6.5 4.6 100 0.0 WNW 52 96 28 52 - - 31.6
16/03:15am 4.7 -3.9 4.7 100 0.0 WNW 39 85 21 46 - - 30.0
16/03:00am 4.7 -3.9 4.7 100 0.0 WNW 39 61 21 33 - - 27.8
16/02:31am 4.9 -5.0 4.9 100 0.0 W 46 65 25 35 - - 23.4
16/02:30am 4.9 -5.0 4.9 100 0.0 W 46 65 25 35 - - 23.2
16/02:00am 5.3 -2.4 5.3 100 0.0 WNW 35 54 19 29 - - 20.4
16/01:30am 5.5 -2.9 5.5 100 0.0 W 39 61 21 33 - - 18.4
16/01:00am 6.0 -1.2 6.0 100 0.0 WNW 33 52 18 28 - - 17.2
16/12:34am 6.2 -0.4 6.2 100 0.0 WNW 30 50 16 27 - - 16.6
16/12:30am 6.2 -0.4 6.2 100 0.0 WNW 30 46 16 25 - - 16.4
16/12:00am 6.3 0.1 6.3 100 0.0 WNW 28 56 15 30 - - 16.0
 
Date/Time
EST
Temp
°C
App
Temp
°C
Dew
Point
°C
Rel
Hum
%
Delta-T
°C
Wind Press
QNH
hPa
Press
MSL
hPa
Rain since
9am
mm
Dir  Spd
km/h
Gust
km/h
Spd
kts
Gust
kts
15/11:30pm 6.4 -0.5 6.4 100 0.0 NW 32 52 17 28 - - 15.4
15/11:05pm 6.5 -1.3 6.5 100 0.0 NW 37 56 20 30 - - 15.0
15/11:00pm 6.5 -1.3 6.5 100 0.0 NW 37 54 20 29 - - 15.0
15/10:30pm 6.5 -2.5 6.5 100 0.0 NW 43 61 23 33 - - 14.2
15/10:00pm 6.5 -1.0 6.4 99 0.0 NW 35 57 19 31 - - 13.4
15/09:34pm 6.6 -1.6 6.5 99 0.0 NW 39 61 21 33 - - 13.4
15/09:30pm 6.6 -1.6 6.5 99 0.0 NW 39 54 21 29 - - 13.4
15/09:01pm 6.5 -1.7 6.5 100 0.0 NW 39 59 21 32 - - 13.2
15/09:00pm 6.6 -1.6 6.6 100 0.0 NW 39 56 21 30 - - 13.2
15/08:30pm 6.2 -1.7 6.2 100 0.0 NNW 37 56 20 30 - - 13.0
15/08:00pm 6.1 -1.8 6.1 100 0.0 NNW 37 63 20 34 - - 12.6
15/07:37pm 6.3 -1.2 6.3 100 0.0 NNW 35 63 19 34 - - 11.8
15/07:30pm 6.3 -1.6 6.3 100 0.0 NNW 37 52 20 28 - - 11.8
15/07:07pm 6.5 -1.3 6.5 100 0.0 NNW 37 56 20 30 - - 11.2
15/07:00pm 6.5 -1.3 6.5 100 0.0 NNW 37 52 20 28 - - 11.0
15/06:30pm 6.6 -1.2 6.6 100 0.0 NNW 37 57 20 31 - - 10.2
15/06:28pm 6.6 -0.8 6.6 100 0.0 NNW 35 57 19 31 - - 10.2
15/06:00pm 6.4 -0.5 6.4 100 0.0 NNW 32 46 17 25 - - 9.4
15/05:30pm 6.5 0.0 6.5 100 0.0 NNW 30 43 16 23 - - 8.6
15/05:00pm 6.1 -0.1 6.1 100 0.0 NNW 28 39 15 21 - - 8.0
15/04:30pm 5.3 -0.3 5.3 100 0.0 NNW 24 32 13 17 - - 7.4
15/04:00pm 5.0 0.3 5.0 100 0.0 N 19 28 10 15 - - 6.6
15/03:30pm 4.5 0.1 4.5 100 0.0 N 17 24 9 13 - - 5.8
15/03:00pm 5.3 1.8 5.3 100 0.0 NNW 13 20 7 11 - - 5.8
15/02:30pm 4.8 -0.5 4.8 100 0.0 NNW 22 37 12 20 - - 5.0
15/02:00pm 5.9 0.4 5.9 100 0.0 NW 24 37 13 20 - - 3.4
15/01:30pm 5.7 1.1 5.7 100 0.0 NW 19 30 10 16 - - 2.2
15/01:00pm 5.6 0.4 5.6 100 0.0 NW 22 37 12 20 - - 1.2
15/12:30pm 5.2 0.3 5.2 100 0.0 N 20 30 11 16 - - 1.2
15/12:00pm 5.4 -0.2 5.4 100 0.0 N 24 35 13 19 - - 1.2
15/11:30am 5.5 0.3 5.5 100 0.0 N 22 32 12 17 - - 1.2
15/11:00am 4.9 -0.8 4.9 100 0.0 N 24 32 13 17 - - 1.2
15/10:30am 4.9 -1.2 4.9 100 0.0 N 26 35 14 19 - - 1.2
15/10:00am 4.2 -1.3 4.2 100 0.0 N 22 32 12 17 - - 0.4
15/09:30am 4.3 -0.2 4.3 100 0.0 N 17 24 9 13 - - 0.2
15/09:00am 4.8 -0.2 4.8 100 0.0 NNW 20 26 11 14 - - 3.2
15/08:30am 4.7 -0.3 4.6 99 0.0 NNW 20 28 11 15 - - 1.8
15/08:00am 4.8 -1.3 4.7 99 0.0 NNW 26 43 14 23 - - 1.0
15/07:30am 5.2 0.6 3.7 90 0.7 NNW 17 22 9 12 - - 0.2
15/07:00am 5.3 -0.1 2.7 83 1.2 NW 20 30 11 16 - - 0.0
15/06:30am 6.1 -0.2 1.4 72 2.1 NW 24 35 13 19 - - 0.0
15/06:00am 5.7 0.1 0.9 71 2.1 NW 20 30 11 16 - - 0.0
15/05:30am 4.9 -0.7 0.9 75 1.7 NW 20 26 11 14 - - 0.0
15/05:00am 4.9 -0.7 1.0 76 1.7 NW 20 28 11 15 - - 0.0
15/04:30am 4.8 -0.8 1.1 77 1.6 WNW 20 26 11 14 - - 0.0
15/04:00am 4.5 -0.9 1.0 78 1.5 WNW 19 26 10 14 - - 0.0
15/03:30am 4.0 -1.1 0.7 79 1.4 NW 17 22 9 12 - - 0.0
15/03:00am 4.2 -0.2 0.5 77 1.6 WNW 13 19 7 10 - - 0.0
15/02:30am 4.0 -1.1 0.7 79 1.4 WNW 17 20 9 11 - - 0.0
15/02:00am 4.0 -1.1 0.9 80 1.3 NW 17 22 9 12 - - 0.0
15/01:30am 3.8 -0.9 0.7 80 1.3 NW 15 20 8 11 - - 0.0
15/01:00am 4.0 -1.1 1.0 81 1.3 NW 17 22 9 12 - - 0.0
15/12:30am 4.0 -1.1 1.0 81 1.3 NW 17 24 9 13 - - 0.0
15/12:00am 4.0 -1.0 1.2 82 1.2 NW 17 24 9 13 - - 0.0
 
Date/Time
EST
Temp
°C
App
Temp
°C
Dew
Point
°C
Rel
Hum
%
Delta-T
°C
Wind Press
QNH
hPa
Press
MSL
hPa
Rain since
9am
mm
Dir  Spd
km/h
Gust
km/h
Spd
kts
Gust
kts
14/11:30pm 4.0 -1.0 1.5 84 1.1 NNW 17 20 9 11 - - 0.0
14/11:00pm 4.0 -1.0 1.5 84 1.1 NNW 17 20 9 11 - - 0.0
14/10:30pm 4.0 -0.6 1.5 84 1.1 NNW 15 19 8 10 - - 0.0
14/10:00pm 4.4 0.2 1.6 82 1.2 NNW 13 17 7 9 - - 0.0
14/09:30pm 4.6 0.0 1.5 80 1.3 NNW 15 19 8 10 - - 0.0
14/09:00pm 4.0 -0.7 1.2 82 1.2 NNW 15 19 8 10 - - 0.0
14/08:30pm 4.4 -0.3 0.9 78 1.5 NNW 15 20 8 11 - - 0.0
14/08:00pm 4.4 -0.3 0.7 77 1.6 NNW 15 20 8 11 - - 0.0
14/07:30pm 4.5 0.1 0.3 74 1.8 NW 13 19 7 10 - - 0.0
14/07:00pm 5.0 -0.3 -0.8 66 2.4 WNW 17 20 9 11 - - 0.0
14/06:30pm 5.2 -0.7 -0.8 65 2.5 WNW 20 28 11 15 - - 0.0
14/06:00pm 5.5 -1.1 -0.3 66 2.4 WNW 24 32 13 17 - - 0.0
14/05:30pm 5.9 -0.6 0.3 67 2.4 WNW 24 32 13 17 - - 0.0
14/05:00pm 6.9 1.9 1.2 67 2.5 WNW 17 24 9 13 - - 0.0
14/04:30pm 7.3 1.4 1.6 67 2.5 W 22 33 12 18 - - 0.0
14/04:00pm 7.5 2.0 1.8 67 2.6 WNW 20 33 11 18 - - 0.0
14/03:30pm 7.8 1.8 1.2 63 2.9 W 22 32 12 17 - - 0.0
14/03:00pm 8.3 2.2 0.5 58 3.4 W 22 32 12 17 - - 0.0
14/02:30pm 8.5 2.9 0.0 55 3.7 WNW 19 26 10 14 - - 0.0
14/02:00pm 8.2 3.4 0.0 56 3.6 WNW 15 26 8 14 - - 0.0
14/01:30pm 7.5 2.6 -0.7 56 3.5 WNW 15 24 8 13 - - 0.0
14/01:00pm 7.3 1.6 -0.6 57 3.4 W 19 26 10 14 - - 0.0
14/12:30pm 6.4 0.9 -2.2 54 3.5 WNW 17 26 9 14 - - 0.0
14/12:00pm 6.7 1.0 -0.7 59 3.1 WNW 19 30 10 16 - - 0.0
14/11:30am 6.7 0.4 -0.7 59 3.1 W 22 32 12 17 - - 0.0
14/11:00am 6.5 1.0 -1.9 55 3.4 W 17 24 9 13 - - 0.0
14/10:30am 6.1 1.8 -2.0 56 3.3 WNW 11 17 6 9 - - 0.0
14/10:00am 5.6 0.8 -2.2 57 3.1 WNW 13 19 7 10 - - 0.0
14/09:30am 4.9 0.6 -1.3 64 2.5 WNW 11 15 6 8 - - 0.0
14/09:00am 4.5 0.3 -0.9 68 2.2 WNW 11 15 6 8 - - 0.0
14/08:30am 4.2 0.7 -1.2 68 2.2 NW 7 11 4 6 - - 0.0
14/08:00am 3.3 -0.5 -0.7 75 1.6 W 9 15 5 8 - - 0.0
14/07:30am 2.2 -0.6 -0.2 84 1.0 WNW 4 7 2 4 - - 0.0
14/07:00am 2.0 -1.4 -0.4 84 1.0 SW 7 9 4 5 - - 0.0
14/06:30am 2.2 -1.2 -0.4 83 1.1 SW 7 11 4 6 - - 0.0
14/06:00am 2.2 -1.5 -0.2 84 1.0 SW 9 11 5 6 - - 0.0
14/05:30am 2.1 -1.6 0.0 86 0.9 SW 9 11 5 6 - - 0.0
14/05:00am 1.9 -1.1 0.7 92 0.5 WSW 6 11 3 6 - - 0.0
14/04:30am 1.7 -1.5 0.7 93 0.4 W 7 11 4 6 - - 0.0
14/04:00am 1.9 -1.7 0.9 93 0.4 WSW 9 13 5 7 - - 0.0
14/03:30am 1.5 -1.7 0.6 94 0.4 WSW 7 11 4 6 - - 0.0
14/03:00am 1.7 -1.8 1.0 95 0.3 W 9 15 5 8 - - 0.0
14/02:30am 1.1 -1.2 0.7 97 0.2 SSE 2 9 1 5 - - 0.0
14/02:00am 1.1 -0.8 0.8 98 0.1 CALM 0 0 0 0 - - 0.0
14/01:30am 1.3 -2.3 0.9 97 0.2 NW 9 15 5 8 - - 0.0
14/01:00am 1.7 -2.7 0.5 92 0.5 NW 13 15 7 8 - - 0.0

Latest Capital City Observations: Canberra | Sydney | Melbourne | Brisbane | Adelaide | Perth | Hobart | Darwin

Other Formats:

Comma delimited format used in spreadsheet applications
http://www.bom.gov.au/fwo/IDN60903/IDN60903.95916.axf

JavaScript Object Notation format (JSON) in row-major order
http://www.bom.gov.au/fwo/IDN60903/IDN60903.95916.json